sensor_id;sensor_type;location;lat;lon;timestamp;pressure;altitude;pressure_sealevel;temperature;humidity
80542;BME280;69870;51.460;8.842;2023-07-29T00:01:59;97795.41;;;17.09;81.98
80542;BME280;69870;51.460;8.842;2023-07-29T00:04:27;97804.84;;;17.08;82.09
80542;BME280;69870;51.460;8.842;2023-07-29T00:06:53;97799.38;;;17.08;82.08
80542;BME280;69870;51.460;8.842;2023-07-29T00:09:20;97804.44;;;17.10;81.91
80542;BME280;69870;51.460;8.842;2023-07-29T00:11:46;97798.53;;;17.11;82.07
80542;BME280;69870;51.460;8.842;2023-07-29T00:14:13;97792.63;;;17.13;82.07
80542;BME280;69870;51.460;8.842;2023-07-29T00:16:39;97786.34;;;17.12;82.13
80542;BME280;69870;51.460;8.842;2023-07-29T00:19:06;97789.09;;;17.12;81.82
80542;BME280;69870;51.460;8.842;2023-07-29T00:21:34;97797.72;;;17.14;82.22
80542;BME280;69870;51.460;8.842;2023-07-29T00:24:01;97787.94;;;17.13;82.29
80542;BME280;69870;51.460;8.842;2023-07-29T00:26:27;97790.69;;;17.13;82.29
80542;BME280;69870;51.460;8.842;2023-07-29T00:28:54;97791.03;;;17.15;82.20
80542;BME280;69870;51.460;8.842;2023-07-29T00:31:21;97789.47;;;17.14;82.22
80542;BME280;69870;51.460;8.842;2023-07-29T00:33:47;97781.59;;;17.16;82.19
80542;BME280;69870;51.460;8.842;2023-07-29T00:36:14;97782.38;;;17.17;82.30
80542;BME280;69870;51.460;8.842;2023-07-29T00:38:42;97769.41;;;17.17;81.90
80542;BME280;69870;51.460;8.842;2023-07-29T00:41:09;97765.88;;;17.17;82.07
80542;BME280;69870;51.460;8.842;2023-07-29T00:43:38;97772.94;;;17.18;82.06
80542;BME280;69870;51.460;8.842;2023-07-29T00:46:05;97750.94;;;17.18;82.12
80542;BME280;69870;51.460;8.842;2023-07-29T00:48:35;97753.31;;;17.19;82.34
80542;BME280;69870;51.460;8.842;2023-07-29T00:51:02;97756.03;;;17.19;82.09
80542;BME280;69870;51.460;8.842;2023-07-29T00:53:28;97764.28;;;17.19;82.17
80542;BME280;69870;51.460;8.842;2023-07-29T00:55:56;97770.56;;;17.20;82.18
80542;BME280;69870;51.460;8.842;2023-07-29T00:58:23;97758.78;;;17.19;82.29
80542;BME280;69870;51.460;8.842;2023-07-29T01:00:50;97755.69;;;17.17;82.54
80542;BME280;69870;51.460;8.842;2023-07-29T01:03:17;97773.34;;;17.16;82.41
80542;BME280;69870;51.460;8.842;2023-07-29T01:05:52;97773.41;;;17.13;82.58
80542;BME280;69870;51.460;8.842;2023-07-29T01:08:27;97775.78;;;17.11;82.70
80542;BME280;69870;51.460;8.842;2023-07-29T01:11:03;97779.75;;;17.06;82.68
80542;BME280;69870;51.460;8.842;2023-07-29T01:13:44;97778.19;;;17.05;83.06
80542;BME280;69870;51.460;8.842;2023-07-29T01:16:17;97779.00;;;17.02;82.69
80542;BME280;69870;51.460;8.842;2023-07-29T01:18:47;97780.56;;;17.03;82.93
80542;BME280;69870;51.460;8.842;2023-07-29T01:21:15;97774.66;;;17.05;83.08
80542;BME280;69870;51.460;8.842;2023-07-29T01:23:45;97765.22;;;17.06;82.90
80542;BME280;69870;51.460;8.842;2023-07-29T01:26:12;97775.03;;;17.07;83.21
80542;BME280;69870;51.460;8.842;2023-07-29T01:28:40;97769.13;;;17.08;82.97
80542;BME280;69870;51.460;8.842;2023-07-29T01:31:15;97768.72;;;17.10;83.04
80542;BME280;69870;51.460;8.842;2023-07-29T01:33:48;97759.69;;;17.09;82.94
80542;BME280;69870;51.460;8.842;2023-07-29T01:36:20;97758.13;;;17.08;83.07
80542;BME280;69870;51.460;8.842;2023-07-29T01:38:49;97755.34;;;17.12;82.73
80542;BME280;69870;51.460;8.842;2023-07-29T01:41:18;97745.50;;;17.14;82.83
80542;BME280;69870;51.460;8.842;2023-07-29T01:43:46;97741.56;;;17.15;82.73
80542;BME280;69870;51.460;8.842;2023-07-29T01:46:14;97732.13;;;17.16;82.87
80542;BME280;69870;51.460;8.842;2023-07-29T01:48:41;97718.38;;;17.16;82.98
80542;BME280;69870;51.460;8.842;2023-07-29T01:51:10;97718.38;;;17.16;82.85
80542;BME280;69870;51.460;8.842;2023-07-29T01:53:37;97723.50;;;17.14;83.04
80542;BME280;69870;51.460;8.842;2023-07-29T01:56:05;97722.72;;;17.14;82.94
80542;BME280;69870;51.460;8.842;2023-07-29T01:58:32;97722.38;;;17.12;82.90
80542;BME280;69870;51.460;8.842;2023-07-29T02:00:59;97723.97;;;17.09;83.09
80542;BME280;69870;51.460;8.842;2023-07-29T02:03:25;97729.88;;;17.08;83.34
80542;BME280;69870;51.460;8.842;2023-07-29T02:05:52;97723.19;;;17.09;83.42
80542;BME280;69870;51.460;8.842;2023-07-29T02:08:19;97723.19;;;17.09;83.26
80542;BME280;69870;51.460;8.842;2023-07-29T02:10:45;97718.47;;;17.09;83.19
80542;BME280;69870;51.460;8.842;2023-07-29T02:13:15;97724.31;;;17.11;83.42
80542;BME280;69870;51.460;8.842;2023-07-29T02:15:42;97726.25;;;17.14;83.58
80542;BME280;69870;51.460;8.842;2023-07-29T02:18:08;97716.41;;;17.17;83.45
80542;BME280;69870;51.460;8.842;2023-07-29T02:20:35;97716.00;;;17.18;83.70
80542;BME280;69870;51.460;8.842;2023-07-29T02:23:01;97707.34;;;17.20;83.55
80542;BME280;69870;51.460;8.842;2023-07-29T02:25:28;97701.81;;;17.23;83.54
80542;BME280;69870;51.460;8.842;2023-07-29T02:27:54;97704.91;;;17.25;83.65
80542;BME280;69870;51.460;8.842;2023-07-29T02:30:22;97702.53;;;17.27;83.48
80542;BME280;69870;51.460;8.842;2023-07-29T02:32:49;97706.00;;;17.31;83.42
80542;BME280;69870;51.460;8.842;2023-07-29T02:35:15;97698.53;;;17.32;83.42
80542;BME280;69870;51.460;8.842;2023-07-29T02:37:42;97695.38;;;17.33;83.35
80542;BME280;69870;51.460;8.842;2023-07-29T02:40:10;97706.75;;;17.35;83.68
80542;BME280;69870;51.460;8.842;2023-07-29T02:42:36;97706.75;;;17.35;83.59
80542;BME280;69870;51.460;8.842;2023-07-29T02:45:04;97714.94;;;17.39;83.42
80542;BME280;69870;51.460;8.842;2023-07-29T02:47:36;97709.44;;;17.39;83.63
80542;BME280;69870;51.460;8.842;2023-07-29T02:50:03;97715.72;;;17.39;83.86
80542;BME280;69870;51.460;8.842;2023-07-29T02:52:30;97704.72;;;17.39;83.92
80542;BME280;69870;51.460;8.842;2023-07-29T02:54:56;97704.31;;;17.41;84.11
80542;BME280;69870;51.460;8.842;2023-07-29T02:57:23;97703.88;;;17.42;83.77
80542;BME280;69870;51.460;8.842;2023-07-29T02:59:49;97709.38;;;17.42;83.61
80542;BME280;69870;51.460;8.842;2023-07-29T03:02:16;97698.44;;;17.39;84.07
80542;BME280;69870;51.460;8.842;2023-07-29T03:04:44;97697.00;;;17.31;84.62
80542;BME280;69870;51.460;8.842;2023-07-29T03:07:10;97685.69;;;17.25;84.90
80542;BME280;69870;51.460;8.842;2023-07-29T03:09:37;97681.00;;;17.22;85.18
80542;BME280;69870;51.460;8.842;2023-07-29T03:12:04;97681.00;;;17.22;84.82
80542;BME280;69870;51.460;8.842;2023-07-29T03:14:31;97683.75;;;17.22;85.26
80542;BME280;69870;51.460;8.842;2023-07-29T03:17:02;97673.97;;;17.21;84.99
80542;BME280;69870;51.460;8.842;2023-07-29T03:19:29;97670.41;;;17.24;85.35
80542;BME280;69870;51.460;8.842;2023-07-29T03:21:57;97667.25;;;17.22;85.37
80542;BME280;69870;51.460;8.842;2023-07-29T03:24:28;97677.06;;;17.23;85.10
80542;BME280;69870;51.460;8.842;2023-07-29T03:26:55;97675.88;;;17.24;85.41
80542;BME280;69870;51.460;8.842;2023-07-29T03:29:21;97669.19;;;17.25;85.59
80542;BME280;69870;51.460;8.842;2023-07-29T03:31:48;97672.28;;;17.27;85.38
80542;BME280;69870;51.460;8.842;2023-07-29T03:34:15;97670.69;;;17.30;85.26
80542;BME280;69870;51.460;8.842;2023-07-29T03:36:45;97670.28;;;17.31;85.69
80542;BME280;69870;51.460;8.842;2023-07-29T03:39:14;97661.63;;;17.33;85.46
80542;BME280;69870;51.460;8.842;2023-07-29T03:41:41;97661.22;;;17.34;85.59
80542;BME280;69870;51.460;8.842;2023-07-29T03:44:07;97651.00;;;17.35;85.08
80542;BME280;69870;51.460;8.842;2023-07-29T03:46:34;97649.78;;;17.36;85.59
80542;BME280;69870;51.460;8.842;2023-07-29T03:49:01;97651.34;;;17.37;85.58
80542;BME280;69870;51.460;8.842;2023-07-29T03:51:28;97647.41;;;17.38;85.24
80542;BME280;69870;51.460;8.842;2023-07-29T03:53:55;97647.00;;;17.39;85.52
80542;BME280;69870;51.460;8.842;2023-07-29T03:56:23;97651.28;;;17.40;85.70
80542;BME280;69870;51.460;8.842;2023-07-29T03:58:49;97648.16;;;17.42;85.54
80542;BME280;69870;51.460;8.842;2023-07-29T04:01:16;97644.97;;;17.43;85.57
80542;BME280;69870;51.460;8.842;2023-07-29T04:03:44;97645.69;;;17.47;85.75
80542;BME280;69870;51.460;8.842;2023-07-29T04:06:11;97646.84;;;17.50;85.80
80542;BME280;69870;51.460;8.842;2023-07-29T04:08:37;97648.78;;;17.53;85.42
80542;BME280;69870;51.460;8.842;2023-07-29T04:11:04;97651.13;;;17.54;85.75
80542;BME280;69870;51.460;8.842;2023-07-29T04:13:32;97647.94;;;17.56;85.46
80542;BME280;69870;51.460;8.842;2023-07-29T04:15:59;97655.72;;;17.61;85.56
80542;BME280;69870;51.460;8.842;2023-07-29T04:18:27;97652.56;;;17.63;85.70
80542;BME280;69870;51.460;8.842;2023-07-29T04:20:53;97646.22;;;17.66;85.50
80542;BME280;69870;51.460;8.842;2023-07-29T04:23:20;97645.03;;;17.67;85.70
80542;BME280;69870;51.460;8.842;2023-07-29T04:25:46;97652.50;;;17.66;85.49
80542;BME280;69870;51.460;8.842;2023-07-29T04:28:13;97643.06;;;17.67;85.75
80542;BME280;69870;51.460;8.842;2023-07-29T04:30:41;97644.97;;;17.70;85.97
80542;BME280;69870;51.460;8.842;2023-07-29T04:33:08;97634.34;;;17.72;85.52
80542;BME280;69870;51.460;8.842;2023-07-29T04:35:36;97633.91;;;17.74;85.80
80542;BME280;69870;51.460;8.842;2023-07-29T04:38:03;97638.59;;;17.77;85.62
80542;BME280;69870;51.460;8.842;2023-07-29T04:40:32;97625.97;;;17.79;85.45
80542;BME280;69870;51.460;8.842;2023-07-29T04:43:00;97627.13;;;17.82;85.48
80542;BME280;69870;51.460;8.842;2023-07-29T04:45:28;97620.00;;;17.84;85.44
80542;BME280;69870;51.460;8.842;2023-07-29T04:47:56;97623.09;;;17.86;85.50
80542;BME280;69870;51.460;8.842;2023-07-29T04:50:22;97617.59;;;17.86;85.61
80542;BME280;69870;51.460;8.842;2023-07-29T04:52:49;97614.13;;;17.82;85.55
80542;BME280;69870;51.460;8.842;2023-07-29T04:55:15;97615.25;;;17.85;85.99
80542;BME280;69870;51.460;8.842;2023-07-29T04:57:42;97614.84;;;17.86;85.50
80542;BME280;69870;51.460;8.842;2023-07-29T05:00:09;97622.31;;;17.86;85.89
80542;BME280;69870;51.460;8.842;2023-07-29T05:02:36;97609.41;;;17.83;85.81
80542;BME280;69870;51.460;8.842;2023-07-29T05:05:05;97617.66;;;17.83;86.08
80542;BME280;69870;51.460;8.842;2023-07-29T05:07:31;97630.25;;;17.80;86.10
80542;BME280;69870;51.460;8.842;2023-07-29T05:09:58;97625.19;;;17.79;86.59
80542;BME280;69870;51.460;8.842;2023-07-29T05:12:24;97623.66;;;17.78;86.59
80542;BME280;69870;51.460;8.842;2023-07-29T05:14:51;97630.25;;;17.80;86.62
80542;BME280;69870;51.460;8.842;2023-07-29T05:17:18;97630.22;;;17.84;86.57
80542;BME280;69870;51.460;8.842;2023-07-29T05:19:44;97634.88;;;17.87;86.52
80542;BME280;69870;51.460;8.842;2023-07-29T05:22:12;97629.31;;;17.90;86.33
80542;BME280;69870;51.460;8.842;2023-07-29T05:24:39;97622.97;;;17.93;86.84
80542;BME280;69870;51.460;8.842;2023-07-29T05:27:05;97620.53;;;17.99;86.63
80542;BME280;69870;51.460;8.842;2023-07-29T05:29:33;97623.63;;;18.01;86.51
80542;BME280;69870;51.460;8.842;2023-07-29T05:32:00;97624.75;;;18.03;86.45
80542;BME280;69870;51.460;8.842;2023-07-29T05:34:27;97630.63;;;18.05;86.89
80542;BME280;69870;51.460;8.842;2023-07-29T05:36:53;97633.31;;;18.09;86.71
80542;BME280;69870;51.460;8.842;2023-07-29T05:39:21;97631.28;;;18.13;86.13
80542;BME280;69870;51.460;8.842;2023-07-29T05:41:49;97642.66;;;18.15;86.37
80542;BME280;69870;51.460;8.842;2023-07-29T05:44:16;97649.31;;;18.17;86.64
80542;BME280;69870;51.460;8.842;2023-07-29T05:46:43;97643.44;;;18.15;86.17
80542;BME280;69870;51.460;8.842;2023-07-29T05:49:09;97642.34;;;18.09;87.21
80542;BME280;69870;51.460;8.842;2023-07-29T05:51:36;97641.19;;;18.07;87.40
80542;BME280;69870;51.460;8.842;2023-07-29T05:54:03;97637.63;;;18.10;87.23
80542;BME280;69870;51.460;8.842;2023-07-29T05:56:30;97635.66;;;18.10;87.08
80542;BME280;69870;51.460;8.842;2023-07-29T05:58:57;97636.78;;;18.13;87.15
80542;BME280;69870;51.460;8.842;2023-07-29T06:01:24;97644.53;;;18.18;87.28
80542;BME280;69870;51.460;8.842;2023-07-29T06:03:51;97640.53;;;18.22;86.72
80542;BME280;69870;51.460;8.842;2023-07-29T06:06:17;97651.50;;;18.26;87.04
80542;BME280;69870;51.460;8.842;2023-07-29T06:08:44;97651.44;;;18.29;86.90
80542;BME280;69870;51.460;8.842;2023-07-29T06:11:10;97645.09;;;18.33;86.63
80542;BME280;69870;51.460;8.842;2023-07-29T06:13:38;97655.25;;;18.36;86.92
80542;BME280;69870;51.460;8.842;2023-07-29T06:16:05;97656.72;;;18.40;86.78
80542;BME280;69870;51.460;8.842;2023-07-29T06:18:31;97656.28;;;18.45;86.40
80542;BME280;69870;51.460;8.842;2023-07-29T06:20:58;97651.91;;;18.48;86.79
80542;BME280;69870;51.460;8.842;2023-07-29T06:23:25;97653.81;;;18.51;86.37
80542;BME280;69870;51.460;8.842;2023-07-29T06:25:51;97646.31;;;18.51;86.58
80542;BME280;69870;51.460;8.842;2023-07-29T06:28:18;97629.03;;;18.51;86.29
80542;BME280;69870;51.460;8.842;2023-07-29T06:30:45;97625.16;;;18.48;86.35
80542;BME280;69870;51.460;8.842;2023-07-29T06:33:12;97619.28;;;18.46;86.25
80542;BME280;69870;51.460;8.842;2023-07-29T06:35:39;97630.72;;;18.45;86.70
80542;BME280;69870;51.460;8.842;2023-07-29T06:38:05;97640.94;;;18.44;86.73
80542;BME280;69870;51.460;8.842;2023-07-29T06:40:32;97645.25;;;18.45;86.52
80542;BME280;69870;51.460;8.842;2023-07-29T06:42:58;97642.38;;;18.52;86.59
80542;BME280;69870;51.460;8.842;2023-07-29T06:45:25;97643.44;;;18.58;86.54
80542;BME280;69870;51.460;8.842;2023-07-29T06:47:53;97644.88;;;18.66;86.74
80542;BME280;69870;51.460;8.842;2023-07-29T06:50:19;97639.56;;;18.75;85.96
80542;BME280;69870;51.460;8.842;2023-07-29T06:52:46;97639.84;;;18.81;85.77
80542;BME280;69870;51.460;8.842;2023-07-29T06:55:13;97635.81;;;18.85;85.88
80542;BME280;69870;51.460;8.842;2023-07-29T06:57:39;97643.94;;;18.92;85.58
80542;BME280;69870;51.460;8.842;2023-07-29T07:00:07;97640.69;;;18.97;85.34
80542;BME280;69870;51.460;8.842;2023-07-29T07:02:34;97649.66;;;19.01;85.61
80542;BME280;69870;51.460;8.842;2023-07-29T07:05:02;97664.97;;;19.02;85.66
80542;BME280;69870;51.460;8.842;2023-07-29T07:07:29;97673.69;;;19.01;85.38
80542;BME280;69870;51.460;8.842;2023-07-29T07:09:56;97675.59;;;19.04;85.30
80542;BME280;69870;51.460;8.842;2023-07-29T07:12:22;97675.50;;;19.08;85.42
80542;BME280;69870;51.460;8.842;2023-07-29T07:14:49;97663.97;;;19.13;85.63
80542;BME280;69870;51.460;8.842;2023-07-29T07:17:15;97665.38;;;19.21;85.72
80542;BME280;69870;51.460;8.842;2023-07-29T07:19:42;97658.94;;;19.27;85.53
80542;BME280;69870;51.460;8.842;2023-07-29T07:22:10;97657.28;;;19.30;84.97
80542;BME280;69870;51.460;8.842;2023-07-29T07:24:36;97637.94;;;19.33;84.98
80542;BME280;69870;51.460;8.842;2023-07-29T07:27:03;97641.06;;;19.35;85.30
80542;BME280;69870;51.460;8.842;2023-07-29T07:29:30;97649.94;;;19.43;84.86
80542;BME280;69870;51.460;8.842;2023-07-29T07:31:57;97661.16;;;19.52;85.25
80542;BME280;69870;51.460;8.842;2023-07-29T07:34:23;97675.50;;;19.63;85.24
80542;BME280;69870;51.460;8.842;2023-07-29T07:36:50;97668.06;;;19.76;85.04
80542;BME280;69870;51.460;8.842;2023-07-29T07:39:18;97673.28;;;19.90;84.15
80542;BME280;69870;51.460;8.842;2023-07-29T07:41:44;97679.56;;;20.07;84.22
80542;BME280;69870;51.460;8.842;2023-07-29T07:44:11;97686.72;;;20.20;83.83
80542;BME280;69870;51.460;8.842;2023-07-29T07:46:40;97689.59;;;20.33;83.99
80542;BME280;69870;51.460;8.842;2023-07-29T07:49:07;97680.75;;;20.38;83.39
80542;BME280;69870;51.460;8.842;2023-07-29T07:51:33;97692.59;;;20.38;83.65
80542;BME280;69870;51.460;8.842;2023-07-29T07:54:00;97683.97;;;20.36;83.94
80542;BME280;69870;51.460;8.842;2023-07-29T07:56:28;97682.44;;;20.35;83.38
80542;BME280;69870;51.460;8.842;2023-07-29T07:58:54;97680.00;;;20.37;84.18
80542;BME280;69870;51.460;8.842;2023-07-29T08:01:21;97686.22;;;20.41;83.43
80542;BME280;69870;51.460;8.842;2023-07-29T08:03:47;97677.41;;;20.47;83.75
80542;BME280;69870;51.460;8.842;2023-07-29T08:06:14;97679.94;;;20.54;83.29
80542;BME280;69870;51.460;8.842;2023-07-29T08:08:40;97682.53;;;20.61;83.36
80542;BME280;69870;51.460;8.842;2023-07-29T08:11:07;97674.38;;;20.70;82.66
80542;BME280;69870;51.460;8.842;2023-07-29T08:13:35;97674.00;;;20.84;82.51
80542;BME280;69870;51.460;8.842;2023-07-29T08:16:02;97677.91;;;20.99;82.24
80542;BME280;69870;51.460;8.842;2023-07-29T08:18:28;97677.22;;;21.11;82.17
80542;BME280;69870;51.460;8.842;2023-07-29T08:20:56;97669.91;;;21.17;81.48
80542;BME280;69870;51.460;8.842;2023-07-29T08:23:23;97669.91;;;21.17;81.34
80542;BME280;69870;51.460;8.842;2023-07-29T08:25:52;97672.13;;;21.22;81.80
80542;BME280;69870;51.460;8.842;2023-07-29T08:28:19;97674.13;;;21.34;81.28
80542;BME280;69870;51.460;8.842;2023-07-29T08:30:47;97675.69;;;21.48;80.15
80542;BME280;69870;51.460;8.842;2023-07-29T08:33:14;97676.59;;;21.57;80.22
80542;BME280;69870;51.460;8.842;2023-07-29T08:35:41;97677.47;;;21.79;79.71
80542;BME280;69870;51.460;8.842;2023-07-29T08:38:07;97680.56;;;22.07;78.92
80542;BME280;69870;51.460;8.842;2023-07-29T08:40:35;97671.56;;;22.28;78.06
80542;BME280;69870;51.460;8.842;2023-07-29T08:43:04;97674.50;;;22.46;77.67
80542;BME280;69870;51.460;8.842;2023-07-29T08:45:34;97668.88;;;22.37;77.10
80542;BME280;69870;51.460;8.842;2023-07-29T08:48:04;97674.28;;;22.40;77.11
80542;BME280;69870;51.460;8.842;2023-07-29T08:50:35;97671.88;;;22.30;77.27
80542;BME280;69870;51.460;8.842;2023-07-29T08:53:03;97675.13;;;22.16;77.46
80542;BME280;69870;51.460;8.842;2023-07-29T08:55:31;97671.16;;;22.04;77.10
80542;BME280;69870;51.460;8.842;2023-07-29T08:57:58;97669.84;;;21.96;77.45
80542;BME280;69870;51.460;8.842;2023-07-29T09:00:25;97660.31;;;21.97;77.05
80542;BME280;69870;51.460;8.842;2023-07-29T09:02:54;97662.03;;;22.16;76.30
80542;BME280;69870;51.460;8.842;2023-07-29T09:05:24;97655.78;;;22.37;75.41
80542;BME280;69870;51.460;8.842;2023-07-29T09:07:51;97654.25;;;22.58;74.60
80542;BME280;69870;51.460;8.842;2023-07-29T09:10:21;97654.31;;;22.80;73.75
80542;BME280;69870;51.460;8.842;2023-07-29T09:12:48;97663.19;;;23.18;73.04
80542;BME280;69870;51.460;8.842;2023-07-29T09:15:26;97671.63;;;23.67;71.84
80542;BME280;69870;51.460;8.842;2023-07-29T09:17:53;97675.72;;;24.33;70.60
80542;BME280;69870;51.460;8.842;2023-07-29T09:20:25;97675.91;;;24.93;68.35
80542;BME280;69870;51.460;8.842;2023-07-29T09:22:53;97680.41;;;24.99;67.57
80542;BME280;69870;51.460;8.842;2023-07-29T09:25:24;97683.19;;;24.81;67.37
80542;BME280;69870;51.460;8.842;2023-07-29T09:27:51;97685.47;;;24.55;67.88
80542;BME280;69870;51.460;8.842;2023-07-29T09:30:18;97682.78;;;24.16;68.03
80542;BME280;69870;51.460;8.842;2023-07-29T09:32:45;97684.72;;;23.97;68.29
80542;BME280;69870;51.460;8.842;2023-07-29T09:35:12;97687.97;;;23.95;67.76
80542;BME280;69870;51.460;8.842;2023-07-29T09:37:40;97692.19;;;24.09;67.04
80542;BME280;69870;51.460;8.842;2023-07-29T09:40:13;97678.38;;;24.72;64.79
80542;BME280;69870;51.460;8.842;2023-07-29T09:42:47;97687.78;;;25.80;62.60
80542;BME280;69870;51.460;8.842;2023-07-29T09:45:19;97671.16;;;26.89;59.83
80542;BME280;69870;51.460;8.842;2023-07-29T09:47:46;97670.31;;;27.86;57.85
80542;BME280;69870;51.460;8.842;2023-07-29T09:50:13;97666.56;;;28.44;56.11
80542;BME280;69870;51.460;8.842;2023-07-29T09:52:41;97661.16;;;28.80;54.25
80542;BME280;69870;51.460;8.842;2023-07-29T09:55:09;97666.38;;;29.13;53.12
80542;BME280;69870;51.460;8.842;2023-07-29T09:57:36;97677.56;;;29.33;52.73
80542;BME280;69870;51.460;8.842;2023-07-29T10:00:05;97674.00;;;29.13;52.87
80542;BME280;69870;51.460;8.842;2023-07-29T10:02:37;97679.44;;;29.47;52.39
80542;BME280;69870;51.460;8.842;2023-07-29T10:05:06;97682.69;;;29.40;52.29
80542;BME280;69870;51.460;8.842;2023-07-29T10:07:34;97683.84;;;28.82;53.06
80542;BME280;69870;51.460;8.842;2023-07-29T10:10:05;97673.03;;;28.70;52.82
80542;BME280;69870;51.460;8.842;2023-07-29T10:12:33;97673.66;;;29.05;52.22
80542;BME280;69870;51.460;8.842;2023-07-29T10:15:02;97666.66;;;29.41;51.26
80542;BME280;69870;51.460;8.842;2023-07-29T10:17:29;97680.09;;;29.94;50.02
80542;BME280;69870;51.460;8.842;2023-07-29T10:19:56;97677.41;;;30.53;48.81
80542;BME280;69870;51.460;8.842;2023-07-29T10:22:26;97679.81;;;30.28;48.63
80542;BME280;69870;51.460;8.842;2023-07-29T10:24:56;97674.16;;;30.17;48.97
80542;BME280;69870;51.460;8.842;2023-07-29T10:27:27;97686.81;;;30.07;48.87
80542;BME280;69870;51.460;8.842;2023-07-29T10:29:55;97680.59;;;30.29;48.49
80542;BME280;69870;51.460;8.842;2023-07-29T10:32:24;97685.59;;;30.51;47.60
80542;BME280;69870;51.460;8.842;2023-07-29T10:34:51;97669.41;;;30.88;47.27
80542;BME280;69870;51.460;8.842;2023-07-29T10:37:18;97676.50;;;30.78;47.33
80542;BME280;69870;51.460;8.842;2023-07-29T10:39:52;97675.13;;;30.14;48.15
80542;BME280;69870;51.460;8.842;2023-07-29T10:42:19;97679.88;;;29.66;48.77
80542;BME280;69870;51.460;8.842;2023-07-29T10:44:47;97670.97;;;28.90;49.80
80542;BME280;69870;51.460;8.842;2023-07-29T10:47:16;97667.28;;;28.59;50.49
80542;BME280;69870;51.460;8.842;2023-07-29T10:49:43;97656.94;;;29.11;49.58
80542;BME280;69870;51.460;8.842;2023-07-29T10:52:13;97660.50;;;29.37;49.27
80542;BME280;69870;51.460;8.842;2023-07-29T10:54:43;97652.63;;;29.41;48.88
80542;BME280;69870;51.460;8.842;2023-07-29T10:57:13;97655.50;;;29.21;49.43
80542;BME280;69870;51.460;8.842;2023-07-29T10:59:41;97657.91;;;28.82;49.83
80542;BME280;69870;51.460;8.842;2023-07-29T11:02:20;97666.63;;;28.49;49.38
80542;BME280;69870;51.460;8.842;2023-07-29T11:04:49;97671.44;;;28.08;50.18
80542;BME280;69870;51.460;8.842;2023-07-29T11:07:20;97669.69;;;27.62;50.49
80542;BME280;69870;51.460;8.842;2023-07-29T11:10:11;97676.00;;;27.04;52.01
80542;BME280;69870;51.460;8.842;2023-07-29T11:12:42;97675.75;;;26.78;52.58
80542;BME280;69870;51.460;8.842;2023-07-29T11:15:22;97674.88;;;26.48;53.48
80542;BME280;69870;51.460;8.842;2023-07-29T11:17:52;97690.06;;;26.24;54.73
80542;BME280;69870;51.460;8.842;2023-07-29T11:20:21;97691.34;;;26.13;54.91
80542;BME280;69870;51.460;8.842;2023-07-29T11:22:48;97688.06;;;26.24;54.60
80542;BME280;69870;51.460;8.842;2023-07-29T11:25:16;97683.44;;;26.21;54.41
80542;BME280;69870;51.460;8.842;2023-07-29T11:27:44;97692.63;;;26.12;54.58
80542;BME280;69870;51.460;8.842;2023-07-29T11:30:12;97697.19;;;25.92;54.80
80542;BME280;69870;51.460;8.842;2023-07-29T11:32:41;97697.28;;;25.65;54.76
80542;BME280;69870;51.460;8.842;2023-07-29T11:35:10;97693.78;;;25.55;55.72
80542;BME280;69870;51.460;8.842;2023-07-29T11:37:39;97686.31;;;25.61;53.76
80542;BME280;69870;51.460;8.842;2023-07-29T11:40:06;97686.53;;;25.81;53.70
80542;BME280;69870;51.460;8.842;2023-07-29T11:42:34;97681.53;;;25.94;53.06
80542;BME280;69870;51.460;8.842;2023-07-29T11:45:01;97677.31;;;25.99;52.06
80542;BME280;69870;51.460;8.842;2023-07-29T11:47:29;97689.41;;;25.96;52.64
80542;BME280;69870;51.460;8.842;2023-07-29T11:49:58;97694.88;;;25.90;52.49
80542;BME280;69870;51.460;8.842;2023-07-29T11:52:27;97698.31;;;25.76;52.86
80542;BME280;69870;51.460;8.842;2023-07-29T11:54:54;97703.63;;;25.65;53.12
80542;BME280;69870;51.460;8.842;2023-07-29T11:57:21;97698.56;;;25.55;52.57
80542;BME280;69870;51.460;8.842;2023-07-29T11:59:47;97701.06;;;25.43;52.19
80542;BME280;69870;51.460;8.842;2023-07-29T12:02:16;97696.41;;;25.31;52.74
80542;BME280;69870;51.460;8.842;2023-07-29T12:04:43;97693.03;;;25.27;52.63
80542;BME280;69870;51.460;8.842;2023-07-29T12:07:12;97692.72;;;25.34;52.31
80542;BME280;69870;51.460;8.842;2023-07-29T12:09:41;97696.72;;;25.52;52.88
80542;BME280;69870;51.460;8.842;2023-07-29T12:12:08;97705.78;;;25.70;53.35
80542;BME280;69870;51.460;8.842;2023-07-29T12:14:35;97700.53;;;25.63;52.44
80542;BME280;69870;51.460;8.842;2023-07-29T12:17:03;97699.81;;;25.44;52.75
80542;BME280;69870;51.460;8.842;2023-07-29T12:19:34;97698.78;;;25.15;53.42
80542;BME280;69870;51.460;8.842;2023-07-29T12:22:02;97697.72;;;25.03;53.54
80542;BME280;69870;51.460;8.842;2023-07-29T12:24:29;97699.72;;;24.94;53.48
80542;BME280;69870;51.460;8.842;2023-07-29T12:26:57;97701.88;;;24.81;54.25
80542;BME280;69870;51.460;8.842;2023-07-29T12:29:24;97698.94;;;24.66;54.58
80542;BME280;69870;51.460;8.842;2023-07-29T12:31:57;97699.41;;;24.55;54.57
80542;BME280;69870;51.460;8.842;2023-07-29T12:34:25;97700.91;;;24.47;54.76
80542;BME280;69870;51.460;8.842;2023-07-29T12:36:52;97703.22;;;24.40;54.88
80542;BME280;69870;51.460;8.842;2023-07-29T12:39:21;97707.72;;;24.37;55.36
80542;BME280;69870;51.460;8.842;2023-07-29T12:41:48;97702.44;;;24.39;55.53
80542;BME280;69870;51.460;8.842;2023-07-29T12:44:16;97702.44;;;24.30;56.13
80542;BME280;69870;51.460;8.842;2023-07-29T12:46:43;97693.00;;;24.28;56.42
80542;BME280;69870;51.460;8.842;2023-07-29T12:49:10;97698.28;;;24.35;56.33
80542;BME280;69870;51.460;8.842;2023-07-29T12:51:37;97689.47;;;24.36;56.33
80542;BME280;69870;51.460;8.842;2023-07-29T12:54:04;97682.81;;;24.43;56.49
80542;BME280;69870;51.460;8.842;2023-07-29T12:56:31;97683.31;;;24.50;56.56
80542;BME280;69870;51.460;8.842;2023-07-29T12:58:58;97692.88;;;24.58;56.50
80542;BME280;69870;51.460;8.842;2023-07-29T13:01:27;97689.19;;;24.61;55.95
80542;BME280;69870;51.460;8.842;2023-07-29T13:03:54;97688.59;;;24.66;56.48